Decoded Metar for CYXR (EARLTON in ON, CANADA) (IATA:YXR) | Meteo·Mobile Aviation Weather
aviador You're here:

CYXR Decoded Metar

EARLTON in ON, CANADA
Report Time2018-09-26 04:45:00
UTC Time2018-09-26 05:04:08
Flight Rules lifr LIFR
Wind140° at 08 kt
W.Decomp.*RWY 16: 7.9 kt HW 1.1 kt LCW
RWY 08: 2.5 kt HW 7.6 kt RCW
W.Rank140° ranks 2
Current wind is above 140° avg. (7.1)
Visibility9999 m
Phenomena:N/A
Clouds:Broken 003 Hf
Broken 010 Hf
Overcast 016 Hf
Ceiling300 ft
Temp16°C (ISA +3)
Dew Point16°C (100% RH)
AAT15.1°C
QNH1005 hPa
Density Alt1,617 ft
Elevation797 ft
Report Wrong Elevation
Raw Report
SPECI CYXR 260445Z AUTO 14008KT 8SM BKN003 BKN010 OVC016 16/16 A2967
RMK SLP050 DENSITY ALT 1400FT=

Extra information for CYXR:More info

Metar Taf Metar & Taf Last 4 Metars F.Rules Stats Wind Profile Meteogram Temp Stats Airport Information Weather charts Add Link Nearby VenuesMetar ALERT Operation Metar Decoded Social comments